METAR Data
IDs: Format: Raw Decoded Include TAF

Data at: 0552 UTC 24 Sep 2018

KGDV 240547Z AUTO 22007KT 9SM FEW008 06/04 A2992 RMK AO2
KGDV 240456Z AUTO 23005KT 9SM OVC008 06/05 A2993 RMK AO2 CIG 006V010 SLP150 T00610050
KGDV 240452Z AUTO 22004KT 9SM OVC008 06/05 A2993 RMK AO2 CIG 006V010
KGDV 240440Z AUTO 25003KT 9SM BKN010 05/04 A2993 RMK AO2
KGDV 240356Z AUTO 15004KT 10SM CLR 06/05 A2992 RMK AO2 SLP144 T00610050
KGDV 240334Z AUTO 09004KT 10SM FEW010 06/04 A2992 RMK AO2
KGDV 240311Z AUTO 00000KT 10SM BKN010 06/04 A2994 RMK AO2
KGDV 240256Z AUTO 08005KT 10SM SCT010 06/04 A2993 RMK AO2 SLP151 T00610044 58000
KGDV 240156Z AUTO 08006KT 10SM OVC012 07/05 A2995 RMK AO2 SLP155 T00670050
KGDV 240056Z AUTO 06006KT 10SM OVC012 07/05 A2994 RMK AO2 SLP150 T00720050
KGDV 232356Z AUTO 07008KT 10SM OVC014 08/05 A2994 RMK AO2 SLP150 T00780050 10083 20061 51011
KGDV 232256Z AUTO 36005KT 10SM OVC012 08/05 A2993 RMK AO2 SLP146 T00830050
KGDV 232156Z AUTO 00000KT 10SM OVC010 07/05 A2994 RMK AO2 SLP150 T00720050
KGDV 232113Z AUTO 06006KT 10SM OVC010 07/05 A2991 RMK AO2
KGDV 232056Z AUTO 04005KT 10SM OVC008 07/04 A2990 RMK AO2 SLP137 T00720044 56023
KGDV 231956Z AUTO 04006KT 10SM OVC008 07/04 A2992 RMK AO2 SLP145 T00670044
KGDV 231856Z AUTO 02009KT 10SM OVC008 06/04 A2993 RMK AO2 SLP149 T00610044
KGDV 231756Z AUTO 04005KT 10SM OVC008 06/04 A2997 RMK AO2 CIG 006V011 SLP162 60000 T00610039 10061 20039 55003
KGDV 231656Z AUTO 07008KT 10SM OVC004 05/04 A2997 RMK AO2 SLP162 T00500039
KGDV 231633Z AUTO 08010KT 10SM OVC004 05/04 A2997 RMK AO2
KGDV 231556Z AUTO 08011KT 10SM OVC002 04/04 A2998 RMK AO2 SLP164 T00440039
KGDV 231456Z AUTO 06008KT 3SM BR OVC002 04/04 A2998 RMK AO2 SLP164 60000 T00440039 53007
KGDV 231356Z AUTO 08008KT 4SM BR OVC002 04/04 A2996 RMK AO2 RAE51 SLP154 P0000 T00440039
KGDV 231350Z AUTO 08008KT 6SM -RA BR OVC002 04/04 A2996 RMK AO2 P0000
KGDV 231336Z AUTO 08009KT 3/4SM -RA BR OVC002 04/04 A2996 RMK AO2 P0000
KGDV 231325Z AUTO 07007KT 1/4SM -RA FG OVC002 04/04 A2995 RMK AO2 P0000
KGDV 231313Z AUTO 06009KT 1/2SM -RA FG OVC002 04/04 A2994 RMK AO2 VIS M1/4V5 P0000
KGDV 231306Z AUTO 08014KT 1 3/4SM -RA BR OVC002 04/04 A2994 RMK AO2 P0000
KGDV 231304Z AUTO 07013KT 3/4SM -RA BR OVC002 04/04 A2994 RMK AO2 P0000
KGDV 231256Z AUTO 06012KT 1/4SM -RA FG OVC002 04/04 A2994 RMK AO2 SLP144 P0000 T00440039
KGDV 231222Z AUTO 05010KT 1/4SM -RA FG OVC002 04/04 A2996 RMK AO2 P0000
KGDV 231218Z AUTO 05011KT 3/4SM -RA BR OVC002 04/04 A2996 RMK AO2 P0000 TSNO
KGDV 231216Z AUTO 05012KT 1 1/4SM -RA BR OVC002 04/04 A2996 RMK AO2 P0000
KGDV 231213Z AUTO 07013KT 4SM -RA BR OVC002 04/04 A2996 RMK AO2 P0000 TSNO
KGDV 231210Z AUTO 08013KT 1 1/4SM -RA BR OVC002 04/04 A2995 RMK AO2 P0000
KGDV 231208Z AUTO 08012KT 3/4SM -RA BR OVC002 04/04 A2996 RMK AO2 P0000
KGDV 231156Z AUTO 03015KT 1/4SM -RA FG OVC002 04/04 A2996 RMK AO2 RAB16 SLP144 P0000 60000 T00440044 10078 20044 55006
KGDV 231138Z AUTO 05014KT 1/2SM -RA FG OVC002 04/04 A2994 RMK AO2 VIS 1/4V2 1/2 RAB16 P0000
KGDV 231129Z AUTO 06013KT 1SM -RA BR OVC002 05/04 A2994 RMK AO2 VIS 1/2V4 RAB16 P0000
KGDV 231121Z AUTO 05016KT 1/2SM -RA FG OVC002 05/04 A2994 RMK AO2 RAB16 P0000
KGDV 231117Z AUTO 05013KT 1SM -RA BR OVC002 05/04 A2994 RMK AO2 VIS 1/4V5 RAB16 P0000
KGDV 231056Z AUTO 05014KT 10SM OVC002 05/04 A2995 RMK AO2 SLP138 T00500044
KGDV 230956Z AUTO 06015KT 6SM BR OVC002 05/04 A2997 RMK AO2 SLP143 T00500044
KGDV 230756Z AUTO 08013KT 9SM OVC004 07/06 A2997 RMK AO2 SLP144 T00670061
KGDV 230714Z AUTO 04012KT 10SM OVC004 07/06 A2996 RMK AO2
KGDV 230656Z AUTO 04013KT 10SM OVC006 07/06 A2995 RMK AO2 SLP139 T00720061 402720061
KGDV 230556Z AUTO 05012KT 10SM OVC006 07/06 A2996 RMK AO2 SLP143 T00720061 10228 20072 51004
KGDV 230456Z AUTO 04016G19KT 10SM OVC008 07/06 A2995 RMK AO2 SLP144 T00720061
KGDV 230446Z AUTO 05012KT 10SM BKN008 07/06 A2995 RMK AO2
KGDV 230410Z AUTO 03017G23KT 10SM FEW008 07/06 A2994 RMK AO2
KGDV 230356Z AUTO 05011KT 10SM CLR 08/06 A2994 RMK AO2 SLP143 T00780061
KGDV 230256Z AUTO 03012KT 10SM CLR 09/07 A2992 RMK AO2 SLP134 T00940067 51020
KGDV 230156Z AUTO 03009G15KT 10SM CLR 13/08 A2991 RMK AO2 SLP134 T01280083
KGDV 230056Z AUTO 03011KT 10SM CLR 17/11 A2988 RMK AO2 SLP121 T01720106
KGDV 222356Z AUTO 34010KT 10SM CLR 23/09 A2985 RMK AO2 SLP105 T02280089 10272 20189 53006
KGDV 222256Z AUTO 34011KT 10SM CLR 25/07 A2983 RMK AO2 SLP097 T02500072
KGDV 222156Z AUTO 32011G16KT 10SM CLR 26/06 A2983 RMK AO2 SLP094 T02610061
KGDV 222056Z AUTO 26005KT 10SM CLR 26/09 A2983 RMK AO2 SLP095 T02560094 56016
KGDV 221956Z AUTO 22011KT 10SM CLR 24/09 A2984 RMK AO2 SLP098 T02440089
KGDV 221856Z AUTO 19009KT 10SM CLR 22/09 A2985 RMK AO2 SLP105 T02170094
KGDV 221756Z AUTO 21009KT 10SM CLR 20/09 A2988 RMK AO2 SLP115 T02000089 10200 20061 56015